sensor_id;sensor_type;location;lat;lon;timestamp;P1;durP1;ratioP1;P2;durP2;ratioP2
3953;SDS011;1991;48.682;9.030;2022-10-04T00:01:41;7.83;;;4.90;;
3953;SDS011;1991;48.682;9.030;2022-10-04T00:04:17;8.07;;;5.70;;
3953;SDS011;1991;48.682;9.030;2022-10-04T00:07:00;7.60;;;5.00;;
3953;SDS011;1991;48.682;9.030;2022-10-04T00:09:53;6.60;;;4.67;;
3953;SDS011;1991;48.682;9.030;2022-10-04T00:12:38;7.53;;;4.20;;
3953;SDS011;1991;48.682;9.030;2022-10-04T00:15:17;9.73;;;4.93;;
3953;SDS011;1991;48.682;9.030;2022-10-04T00:30:44;6.03;;;5.00;;
3953;SDS011;1991;48.682;9.030;2022-10-04T00:33:33;7.00;;;4.40;;
3953;SDS011;1991;48.682;9.030;2022-10-04T00:44:58;7.53;;;5.23;;
3953;SDS011;1991;48.682;9.030;2022-10-04T00:47:48;8.33;;;5.57;;
3953;SDS011;1991;48.682;9.030;2022-10-04T00:50:02;8.30;;;4.83;;
3953;SDS011;1991;48.682;9.030;2022-10-04T00:52:36;11.77;;;5.13;;
3953;SDS011;1991;48.682;9.030;2022-10-04T00:55:33;6.67;;;5.00;;
3953;SDS011;1991;48.682;9.030;2022-10-04T00:58:04;11.27;;;5.57;;
3953;SDS011;1991;48.682;9.030;2022-10-04T01:00:36;7.90;;;5.50;;
3953;SDS011;1991;48.682;9.030;2022-10-04T01:03:05;8.03;;;5.33;;
3953;SDS011;1991;48.682;9.030;2022-10-04T01:05:36;8.00;;;5.20;;
3953;SDS011;1991;48.682;9.030;2022-10-04T01:08:07;6.33;;;5.13;;
3953;SDS011;1991;48.682;9.030;2022-10-04T01:10:44;6.30;;;5.47;;
3953;SDS011;1991;48.682;9.030;2022-10-04T01:13:15;7.70;;;4.90;;
3953;SDS011;1991;48.682;9.030;2022-10-04T01:15:47;6.37;;;4.40;;
3953;SDS011;1991;48.682;9.030;2022-10-04T01:18:18;8.80;;;4.60;;
3953;SDS011;1991;48.682;9.030;2022-10-04T01:20:58;8.23;;;5.50;;
3953;SDS011;1991;48.682;9.030;2022-10-04T01:23:34;9.50;;;4.63;;
3953;SDS011;1991;48.682;9.030;2022-10-04T01:26:05;8.23;;;4.83;;
3953;SDS011;1991;48.682;9.030;2022-10-04T01:28:50;5.27;;;4.57;;
3953;SDS011;1991;48.682;9.030;2022-10-04T01:31:24;6.73;;;4.87;;
3953;SDS011;1991;48.682;9.030;2022-10-04T01:33:53;7.30;;;4.57;;
3953;SDS011;1991;48.682;9.030;2022-10-04T01:36:20;8.20;;;4.27;;
3953;SDS011;1991;48.682;9.030;2022-10-04T01:38:46;6.30;;;4.57;;
3953;SDS011;1991;48.682;9.030;2022-10-04T01:41:13;7.87;;;4.37;;
3953;SDS011;1991;48.682;9.030;2022-10-04T01:43:42;7.47;;;4.23;;
3953;SDS011;1991;48.682;9.030;2022-10-04T01:46:21;5.63;;;4.00;;
3953;SDS011;1991;48.682;9.030;2022-10-04T01:48:50;5.77;;;4.27;;
3953;SDS011;1991;48.682;9.030;2022-10-04T01:51:19;9.57;;;4.70;;
3953;SDS011;1991;48.682;9.030;2022-10-04T01:54:14;7.77;;;4.80;;
3953;SDS011;1991;48.682;9.030;2022-10-04T01:56:49;7.10;;;4.87;;
3953;SDS011;1991;48.682;9.030;2022-10-04T01:59:49;11.03;;;5.13;;
3953;SDS011;1991;48.682;9.030;2022-10-04T02:02:25;6.93;;;4.87;;
3953;SDS011;1991;48.682;9.030;2022-10-04T02:04:59;6.90;;;4.47;;
3953;SDS011;1991;48.682;9.030;2022-10-04T02:07:27;5.87;;;4.07;;
3953;SDS011;1991;48.682;9.030;2022-10-04T02:09:56;5.97;;;4.17;;
3953;SDS011;1991;48.682;9.030;2022-10-04T02:12:26;8.10;;;5.10;;
3953;SDS011;1991;48.682;9.030;2022-10-04T02:14:55;8.57;;;4.33;;
3953;SDS011;1991;48.682;9.030;2022-10-04T02:17:28;6.20;;;4.30;;
3953;SDS011;1991;48.682;9.030;2022-10-04T02:19:56;8.13;;;5.00;;
3953;SDS011;1991;48.682;9.030;2022-10-04T02:22:23;9.40;;;4.37;;
3953;SDS011;1991;48.682;9.030;2022-10-04T02:24:51;5.57;;;3.80;;
3953;SDS011;1991;48.682;9.030;2022-10-04T02:27:19;8.03;;;4.80;;
3953;SDS011;1991;48.682;9.030;2022-10-04T02:29:58;9.53;;;4.80;;
3953;SDS011;1991;48.682;9.030;2022-10-04T02:32:29;7.97;;;5.30;;
3953;SDS011;1991;48.682;9.030;2022-10-04T02:35:14;7.67;;;4.77;;
3953;SDS011;1991;48.682;9.030;2022-10-04T02:37:41;7.80;;;4.83;;
3953;SDS011;1991;48.682;9.030;2022-10-04T02:40:08;7.37;;;4.80;;
3953;SDS011;1991;48.682;9.030;2022-10-04T02:42:46;7.27;;;4.80;;
3953;SDS011;1991;48.682;9.030;2022-10-04T02:45:28;8.03;;;4.27;;
3953;SDS011;1991;48.682;9.030;2022-10-04T02:48:04;5.87;;;4.47;;
3953;SDS011;1991;48.682;9.030;2022-10-04T02:50:45;5.73;;;3.77;;
3953;SDS011;1991;48.682;9.030;2022-10-04T02:53:18;8.13;;;4.10;;
3953;SDS011;1991;48.682;9.030;2022-10-04T02:55:50;6.67;;;4.47;;
3953;SDS011;1991;48.682;9.030;2022-10-04T02:58:18;6.13;;;4.57;;
3953;SDS011;1991;48.682;9.030;2022-10-04T03:00:57;9.00;;;4.23;;
3953;SDS011;1991;48.682;9.030;2022-10-04T03:06:03;8.37;;;4.37;;
3953;SDS011;1991;48.682;9.030;2022-10-04T03:11:08;6.40;;;4.20;;
3953;SDS011;1991;48.682;9.030;2022-10-04T03:13:35;5.80;;;4.30;;
3953;SDS011;1991;48.682;9.030;2022-10-04T03:16:03;5.03;;;4.53;;
3953;SDS011;1991;48.682;9.030;2022-10-04T03:18:29;5.77;;;4.20;;
3953;SDS011;1991;48.682;9.030;2022-10-04T03:20:56;6.17;;;4.20;;
3953;SDS011;1991;48.682;9.030;2022-10-04T03:23:22;6.97;;;4.63;;
3953;SDS011;1991;48.682;9.030;2022-10-04T03:25:52;8.10;;;4.13;;
3953;SDS011;1991;48.682;9.030;2022-10-04T03:28:25;6.37;;;4.23;;
3953;SDS011;1991;48.682;9.030;2022-10-04T03:30:52;6.73;;;4.30;;
3953;SDS011;1991;48.682;9.030;2022-10-04T03:33:19;7.03;;;4.43;;
3953;SDS011;1991;48.682;9.030;2022-10-04T03:35:54;5.33;;;4.20;;
3953;SDS011;1991;48.682;9.030;2022-10-04T03:38:22;6.87;;;4.33;;
3953;SDS011;1991;48.682;9.030;2022-10-04T03:40:52;7.10;;;4.33;;
3953;SDS011;1991;48.682;9.030;2022-10-04T03:43:30;6.90;;;4.43;;
3953;SDS011;1991;48.682;9.030;2022-10-04T03:45:58;5.97;;;4.03;;
3953;SDS011;1991;48.682;9.030;2022-10-04T03:48:48;7.87;;;4.33;;
3953;SDS011;1991;48.682;9.030;2022-10-04T03:51:16;6.17;;;4.20;;
3953;SDS011;1991;48.682;9.030;2022-10-04T03:53:48;5.87;;;4.27;;
3953;SDS011;1991;48.682;9.030;2022-10-04T03:56:21;6.00;;;4.13;;
3953;SDS011;1991;48.682;9.030;2022-10-04T03:58:48;4.47;;;4.07;;
3953;SDS011;1991;48.682;9.030;2022-10-04T04:09:31;6.00;;;4.07;;
3953;SDS011;1991;48.682;9.030;2022-10-04T04:12:05;8.63;;;4.23;;
3953;SDS011;1991;48.682;9.030;2022-10-04T04:14:45;7.30;;;4.73;;
3953;SDS011;1991;48.682;9.030;2022-10-04T04:20:03;8.20;;;5.07;;
3953;SDS011;1991;48.682;9.030;2022-10-04T04:22:36;5.73;;;4.10;;
3953;SDS011;1991;48.682;9.030;2022-10-04T04:25:06;7.53;;;4.87;;
3953;SDS011;1991;48.682;9.030;2022-10-04T04:27:38;6.30;;;4.60;;
3953;SDS011;1991;48.682;9.030;2022-10-04T04:30:05;6.50;;;4.57;;
3953;SDS011;1991;48.682;9.030;2022-10-04T04:32:36;7.40;;;4.40;;
3953;SDS011;1991;48.682;9.030;2022-10-04T04:38:15;9.10;;;4.40;;
3953;SDS011;1991;48.682;9.030;2022-10-04T04:40:44;6.53;;;4.50;;
3953;SDS011;1991;48.682;9.030;2022-10-04T04:43:12;6.00;;;4.57;;
3953;SDS011;1991;48.682;9.030;2022-10-04T04:45:42;6.27;;;4.80;;
3953;SDS011;1991;48.682;9.030;2022-10-04T04:48:10;13.20;;;4.50;;
3953;SDS011;1991;48.682;9.030;2022-10-04T04:50:38;7.83;;;5.07;;
3953;SDS011;1991;48.682;9.030;2022-10-04T04:55:53;4.90;;;4.40;;
3953;SDS011;1991;48.682;9.030;2022-10-04T04:58:37;6.60;;;4.57;;
3953;SDS011;1991;48.682;9.030;2022-10-04T05:03:42;5.80;;;4.47;;
3953;SDS011;1991;48.682;9.030;2022-10-04T05:06:20;8.77;;;4.53;;
3953;SDS011;1991;48.682;9.030;2022-10-04T05:08:49;6.10;;;4.57;;
3953;SDS011;1991;48.682;9.030;2022-10-04T05:11:15;9.57;;;5.37;;
3953;SDS011;1991;48.682;9.030;2022-10-04T05:14:03;7.57;;;5.23;;
3953;SDS011;1991;48.682;9.030;2022-10-04T05:16:51;7.30;;;5.10;;
3953;SDS011;1991;48.682;9.030;2022-10-04T05:19:28;6.13;;;4.80;;
3953;SDS011;1991;48.682;9.030;2022-10-04T05:21:58;11.03;;;5.03;;
3953;SDS011;1991;48.682;9.030;2022-10-04T05:24:32;7.07;;;4.73;;
3953;SDS011;1991;48.682;9.030;2022-10-04T05:27:03;10.83;;;4.80;;
3953;SDS011;1991;48.682;9.030;2022-10-04T05:29:36;9.23;;;5.03;;
3953;SDS011;1991;48.682;9.030;2022-10-04T05:32:25;8.13;;;4.33;;
3953;SDS011;1991;48.682;9.030;2022-10-04T05:34:58;5.87;;;4.90;;
3953;SDS011;1991;48.682;9.030;2022-10-04T05:37:43;8.43;;;4.60;;
3953;SDS011;1991;48.682;9.030;2022-10-04T05:43:05;8.50;;;4.67;;
3953;SDS011;1991;48.682;9.030;2022-10-04T05:45:46;11.23;;;4.70;;
3953;SDS011;1991;48.682;9.030;2022-10-04T05:48:31;7.90;;;4.80;;
3953;SDS011;1991;48.682;9.030;2022-10-04T05:50:58;8.87;;;5.43;;
3953;SDS011;1991;48.682;9.030;2022-10-04T05:53:31;6.80;;;4.93;;
3953;SDS011;1991;48.682;9.030;2022-10-04T05:59:03;5.13;;;4.50;;
3953;SDS011;1991;48.682;9.030;2022-10-04T06:04:30;6.67;;;4.63;;
3953;SDS011;1991;48.682;9.030;2022-10-04T06:06:59;8.53;;;4.90;;
3953;SDS011;1991;48.682;9.030;2022-10-04T06:21:15;10.30;;;5.03;;
3953;SDS011;1991;48.682;9.030;2022-10-04T06:23:51;7.50;;;4.30;;
3953;SDS011;1991;48.682;9.030;2022-10-04T06:26:19;7.43;;;4.53;;
3953;SDS011;1991;48.682;9.030;2022-10-04T06:28:50;6.73;;;4.30;;
3953;SDS011;1991;48.682;9.030;2022-10-04T06:34:02;8.20;;;4.33;;
3953;SDS011;1991;48.682;9.030;2022-10-04T06:43:02;10.23;;;4.60;;
3953;SDS011;1991;48.682;9.030;2022-10-04T07:02:41;10.60;;;5.20;;
3953;SDS011;1991;48.682;9.030;2022-10-04T07:05:12;10.33;;;5.17;;
3953;SDS011;1991;48.682;9.030;2022-10-04T07:07:46;10.47;;;6.33;;
3953;SDS011;1991;48.682;9.030;2022-10-04T07:10:35;9.90;;;5.83;;
3953;SDS011;1991;48.682;9.030;2022-10-04T07:15:43;9.67;;;5.93;;
3953;SDS011;1991;48.682;9.030;2022-10-04T07:18:17;7.13;;;5.40;;
3953;SDS011;1991;48.682;9.030;2022-10-04T07:20:48;16.23;;;6.03;;
3953;SDS011;1991;48.682;9.030;2022-10-04T07:23:24;15.63;;;5.77;;
3953;SDS011;1991;48.682;9.030;2022-10-04T07:26:06;11.43;;;5.40;;
3953;SDS011;1991;48.682;9.030;2022-10-04T07:28:42;12.10;;;5.47;;
3953;SDS011;1991;48.682;9.030;2022-10-04T07:31:31;8.83;;;4.93;;
3953;SDS011;1991;48.682;9.030;2022-10-04T07:34:00;12.13;;;5.20;;
3953;SDS011;1991;48.682;9.030;2022-10-04T07:45:03;11.67;;;4.83;;
3953;SDS011;1991;48.682;9.030;2022-10-04T07:47:32;11.80;;;4.77;;
3953;SDS011;1991;48.682;9.030;2022-10-04T07:49:58;5.90;;;3.87;;
3953;SDS011;1991;48.682;9.030;2022-10-04T08:00:30;8.03;;;4.00;;
3953;SDS011;1991;48.682;9.030;2022-10-04T08:06:30;9.27;;;4.20;;
3953;SDS011;1991;48.682;9.030;2022-10-04T08:11:45;11.80;;;5.47;;
3953;SDS011;1991;48.682;9.030;2022-10-04T08:14:35;8.10;;;4.97;;
3953;SDS011;1991;48.682;9.030;2022-10-04T08:27:51;8.23;;;4.93;;
3953;SDS011;1991;48.682;9.030;2022-10-04T08:30:41;7.90;;;3.93;;
3953;SDS011;1991;48.682;9.030;2022-10-04T08:47:32;5.83;;;3.00;;
3953;SDS011;1991;48.682;9.030;2022-10-04T08:50:36;6.82;;;3.22;;
3953;SDS011;1991;48.682;9.030;2022-10-04T09:08:08;5.45;;;3.45;;
3953;SDS011;1991;48.682;9.030;2022-10-04T09:10:58;8.02;;;3.03;;
3953;SDS011;1991;48.682;9.030;2022-10-04T09:16:44;5.47;;;2.88;;
3953;SDS011;1991;48.682;9.030;2022-10-04T09:19:54;4.65;;;2.60;;
3953;SDS011;1991;48.682;9.030;2022-10-04T09:27:57;7.28;;;2.40;;
3953;SDS011;1991;48.682;9.030;2022-10-04T09:30:51;7.22;;;2.70;;
3953;SDS011;1991;48.682;9.030;2022-10-04T09:41:40;4.70;;;2.83;;
3953;SDS011;1991;48.682;9.030;2022-10-04T09:44:28;6.85;;;2.67;;
3953;SDS011;1991;48.682;9.030;2022-10-04T10:01:19;4.00;;;2.53;;
3953;SDS011;1991;48.682;9.030;2022-10-04T10:04:21;8.45;;;3.05;;
3953;SDS011;1991;48.682;9.030;2022-10-04T10:07:43;6.18;;;2.63;;
3953;SDS011;1991;48.682;9.030;2022-10-04T10:36:03;4.93;;;2.40;;
3953;SDS011;1991;48.682;9.030;2022-10-04T10:41:52;5.18;;;2.05;;
3953;SDS011;1991;48.682;9.030;2022-10-04T10:50:30;2.80;;;1.92;;
3953;SDS011;1991;48.682;9.030;2022-10-04T10:53:34;4.43;;;1.88;;
3953;SDS011;1991;48.682;9.030;2022-10-04T10:59:27;4.63;;;1.95;;
3953;SDS011;1991;48.682;9.030;2022-10-04T11:07:45;2.45;;;1.67;;
3953;SDS011;1991;48.682;9.030;2022-10-04T11:24:19;5.38;;;1.70;;
3953;SDS011;1991;48.682;9.030;2022-10-04T11:29:45;4.03;;;1.60;;
3953;SDS011;1991;48.682;9.030;2022-10-04T11:56:40;2.13;;;1.17;;
3953;SDS011;1991;48.682;9.030;2022-10-04T11:59:36;1.38;;;1.27;;
3953;SDS011;1991;48.682;9.030;2022-10-04T12:36:27;5.13;;;1.42;;
3953;SDS011;1991;48.682;9.030;2022-10-04T12:50:30;1.95;;;1.10;;
3953;SDS011;1991;48.682;9.030;2022-10-04T12:56:04;1.50;;;0.95;;
3953;SDS011;1991;48.682;9.030;2022-10-04T12:59:23;3.42;;;1.05;;
3953;SDS011;1991;48.682;9.030;2022-10-04T13:04:36;2.55;;;1.10;;
3953;SDS011;1991;48.682;9.030;2022-10-04T13:07:19;2.90;;;1.40;;
3953;SDS011;1991;48.682;9.030;2022-10-04T13:09:52;5.63;;;1.63;;
3953;SDS011;1991;48.682;9.030;2022-10-04T13:15:28;8.02;;;1.50;;
3953;SDS011;1991;48.682;9.030;2022-10-04T13:21:02;2.78;;;0.98;;
3953;SDS011;1991;48.682;9.030;2022-10-04T13:26:26;1.38;;;1.10;;
3953;SDS011;1991;48.682;9.030;2022-10-04T13:31:40;1.42;;;1.00;;
3953;SDS011;1991;48.682;9.030;2022-10-04T13:34:27;3.08;;;1.00;;
3953;SDS011;1991;48.682;9.030;2022-10-04T13:45:21;0.85;;;0.80;;
3953;SDS011;1991;48.682;9.030;2022-10-04T13:47:55;25.95;;;1.88;;
3953;SDS011;1991;48.682;9.030;2022-10-04T13:53:33;1.98;;;0.80;;
3953;SDS011;1991;48.682;9.030;2022-10-04T13:56:43;2.90;;;1.00;;
3953;SDS011;1991;48.682;9.030;2022-10-04T13:59:44;2.55;;;1.40;;
3953;SDS011;1991;48.682;9.030;2022-10-04T14:05:21;2.03;;;1.08;;
3953;SDS011;1991;48.682;9.030;2022-10-04T14:08:30;1.70;;;0.68;;
3953;SDS011;1991;48.682;9.030;2022-10-04T14:23:08;1.42;;;1.00;;
3953;SDS011;1991;48.682;9.030;2022-10-04T14:25:57;2.55;;;1.02;;
3953;SDS011;1991;48.682;9.030;2022-10-04T14:33:54;1.70;;;1.02;;
3953;SDS011;1991;48.682;9.030;2022-10-04T14:36:31;1.95;;;0.90;;
3953;SDS011;1991;48.682;9.030;2022-10-04T14:39:53;1.48;;;0.90;;
3953;SDS011;1991;48.682;9.030;2022-10-04T14:42:20;1.80;;;1.08;;
3953;SDS011;1991;48.682;9.030;2022-10-04T14:50:42;1.85;;;1.55;;
3953;SDS011;1991;48.682;9.030;2022-10-04T15:02:12;1.95;;;1.00;;
3953;SDS011;1991;48.682;9.030;2022-10-04T15:07:55;3.30;;;0.93;;
3953;SDS011;1991;48.682;9.030;2022-10-04T15:10:58;2.28;;;1.17;;
3953;SDS011;1991;48.682;9.030;2022-10-04T15:13:29;3.35;;;1.48;;
3953;SDS011;1991;48.682;9.030;2022-10-04T15:18:58;3.38;;;1.30;;
3953;SDS011;1991;48.682;9.030;2022-10-04T15:21:41;3.28;;;1.77;;
3953;SDS011;1991;48.682;9.030;2022-10-04T15:27:15;20.73;;;2.08;;
3953;SDS011;1991;48.682;9.030;2022-10-04T15:37:55;2.35;;;1.20;;
3953;SDS011;1991;48.682;9.030;2022-10-04T15:43:42;2.55;;;1.10;;
3953;SDS011;1991;48.682;9.030;2022-10-04T16:00:22;2.60;;;1.40;;
3953;SDS011;1991;48.682;9.030;2022-10-04T16:06:02;4.53;;;1.70;;
3953;SDS011;1991;48.682;9.030;2022-10-04T16:11:30;5.00;;;1.70;;
3953;SDS011;1991;48.682;9.030;2022-10-04T16:17:10;2.75;;;1.50;;
3953;SDS011;1991;48.682;9.030;2022-10-04T16:22:42;2.03;;;1.13;;
3953;SDS011;1991;48.682;9.030;2022-10-04T16:25:50;2.45;;;1.38;;
3953;SDS011;1991;48.682;9.030;2022-10-04T16:28:20;4.85;;;1.83;;
3953;SDS011;1991;48.682;9.030;2022-10-04T16:31:16;3.65;;;1.63;;
3953;SDS011;1991;48.682;9.030;2022-10-04T16:34:02;4.25;;;1.52;;
3953;SDS011;1991;48.682;9.030;2022-10-04T16:36:50;5.30;;;1.60;;
3953;SDS011;1991;48.682;9.030;2022-10-04T16:47:36;2.90;;;1.65;;
3953;SDS011;1991;48.682;9.030;2022-10-04T16:50:09;6.35;;;2.00;;
3953;SDS011;1991;48.682;9.030;2022-10-04T17:17:07;5.65;;;2.35;;
3953;SDS011;1991;48.682;9.030;2022-10-04T17:19:52;4.78;;;1.85;;
3953;SDS011;1991;48.682;9.030;2022-10-04T17:22:27;3.50;;;2.10;;
3953;SDS011;1991;48.682;9.030;2022-10-04T17:25:31;6.13;;;2.10;;
3953;SDS011;1991;48.682;9.030;2022-10-04T17:30:51;6.20;;;2.17;;
3953;SDS011;1991;48.682;9.030;2022-10-04T17:35:59;5.65;;;2.25;;
3953;SDS011;1991;48.682;9.030;2022-10-04T17:52:22;13.65;;;12.07;;
3953;SDS011;1991;48.682;9.030;2022-10-04T17:57:59;6.38;;;3.90;;
3953;SDS011;1991;48.682;9.030;2022-10-04T18:00:46;5.80;;;4.50;;
3953;SDS011;1991;48.682;9.030;2022-10-04T18:03:19;10.68;;;6.53;;
3953;SDS011;1991;48.682;9.030;2022-10-04T18:06:01;14.05;;;12.68;;
3953;SDS011;1991;48.682;9.030;2022-10-04T18:08:53;8.75;;;7.55;;
3953;SDS011;1991;48.682;9.030;2022-10-04T18:17:08;7.45;;;5.82;;
3953;SDS011;1991;48.682;9.030;2022-10-04T18:22:45;4.40;;;3.17;;
3953;SDS011;1991;48.682;9.030;2022-10-04T18:25:20;4.72;;;2.65;;
3953;SDS011;1991;48.682;9.030;2022-10-04T18:28:10;5.10;;;3.30;;
3953;SDS011;1991;48.682;9.030;2022-10-04T18:33:16;4.60;;;2.60;;
3953;SDS011;1991;48.682;9.030;2022-10-04T18:36:14;6.15;;;2.65;;
3953;SDS011;1991;48.682;9.030;2022-10-04T18:41:41;5.78;;;2.40;;
3953;SDS011;1991;48.682;9.030;2022-10-04T18:44:28;5.70;;;2.33;;
3953;SDS011;1991;48.682;9.030;2022-10-04T18:47:13;4.03;;;2.42;;
3953;SDS011;1991;48.682;9.030;2022-10-04T18:49:53;4.53;;;2.28;;
3953;SDS011;1991;48.682;9.030;2022-10-04T18:55:10;4.53;;;2.95;;
3953;SDS011;1991;48.682;9.030;2022-10-04T18:57:46;3.13;;;2.53;;
3953;SDS011;1991;48.682;9.030;2022-10-04T19:00:51;3.78;;;2.90;;
3953;SDS011;1991;48.682;9.030;2022-10-04T19:06:26;4.03;;;3.05;;
3953;SDS011;1991;48.682;9.030;2022-10-04T19:22:16;6.55;;;3.38;;
3953;SDS011;1991;48.682;9.030;2022-10-04T19:27:51;8.10;;;3.17;;
3953;SDS011;1991;48.682;9.030;2022-10-04T19:30:25;9.65;;;2.70;;
3953;SDS011;1991;48.682;9.030;2022-10-04T19:35:40;2.80;;;2.50;;
3953;SDS011;1991;48.682;9.030;2022-10-04T19:43:58;3.97;;;2.63;;
3953;SDS011;1991;48.682;9.030;2022-10-04T19:47:08;5.40;;;2.90;;
3953;SDS011;1991;48.682;9.030;2022-10-04T19:52:26;3.38;;;2.60;;
3953;SDS011;1991;48.682;9.030;2022-10-04T19:55:01;3.33;;;2.53;;
3953;SDS011;1991;48.682;9.030;2022-10-04T20:00:51;4.68;;;2.67;;
3953;SDS011;1991;48.682;9.030;2022-10-04T20:03:17;4.55;;;2.85;;
3953;SDS011;1991;48.682;9.030;2022-10-04T20:05:50;5.07;;;3.22;;
3953;SDS011;1991;48.682;9.030;2022-10-04T20:11:13;5.95;;;3.33;;
3953;SDS011;1991;48.682;9.030;2022-10-04T20:21:53;5.97;;;3.78;;
3953;SDS011;1991;48.682;9.030;2022-10-04T20:24:53;5.05;;;3.58;;
3953;SDS011;1991;48.682;9.030;2022-10-04T20:34:57;5.00;;;2.90;;
3953;SDS011;1991;48.682;9.030;2022-10-04T20:43:22;3.10;;;2.60;;
3953;SDS011;1991;48.682;9.030;2022-10-04T20:45:44;4.28;;;2.75;;
3953;SDS011;1991;48.682;9.030;2022-10-04T20:48:19;3.33;;;2.70;;
3953;SDS011;1991;48.682;9.030;2022-10-04T20:50:46;4.50;;;2.78;;
3953;SDS011;1991;48.682;9.030;2022-10-04T20:55:46;5.97;;;4.90;;
3953;SDS011;1991;48.682;9.030;2022-10-04T20:58:29;5.15;;;3.65;;
3953;SDS011;1991;48.682;9.030;2022-10-04T21:01:00;3.78;;;3.22;;
3953;SDS011;1991;48.682;9.030;2022-10-04T21:03:40;4.82;;;3.72;;
3953;SDS011;1991;48.682;9.030;2022-10-04T21:06:07;4.88;;;3.13;;
3953;SDS011;1991;48.682;9.030;2022-10-04T21:08:35;5.50;;;3.50;;
3953;SDS011;1991;48.682;9.030;2022-10-04T21:13:55;4.63;;;3.22;;
3953;SDS011;1991;48.682;9.030;2022-10-04T21:17:31;6.57;;;3.53;;
3953;SDS011;1991;48.682;9.030;2022-10-04T21:30:20;6.75;;;4.30;;
3953;SDS011;1991;48.682;9.030;2022-10-04T21:32:46;6.40;;;4.37;;
3953;SDS011;1991;48.682;9.030;2022-10-04T21:35:12;5.43;;;3.60;;
3953;SDS011;1991;48.682;9.030;2022-10-04T21:37:37;6.60;;;4.22;;
3953;SDS011;1991;48.682;9.030;2022-10-04T21:40:04;5.25;;;3.83;;
3953;SDS011;1991;48.682;9.030;2022-10-04T21:42:30;6.45;;;3.97;;
3953;SDS011;1991;48.682;9.030;2022-10-04T21:44:56;4.45;;;3.72;;
3953;SDS011;1991;48.682;9.030;2022-10-04T21:47:22;5.97;;;3.92;;
3953;SDS011;1991;48.682;9.030;2022-10-04T21:49:48;8.33;;;4.23;;
3953;SDS011;1991;48.682;9.030;2022-10-04T21:52:15;5.53;;;3.90;;
3953;SDS011;1991;48.682;9.030;2022-10-04T21:54:42;8.80;;;4.17;;
3953;SDS011;1991;48.682;9.030;2022-10-04T21:57:08;8.10;;;4.30;;
3953;SDS011;1991;48.682;9.030;2022-10-04T21:59:34;6.70;;;4.40;;
3953;SDS011;1991;48.682;9.030;2022-10-04T22:02:00;4.83;;;4.17;;
3953;SDS011;1991;48.682;9.030;2022-10-04T22:04:25;5.83;;;4.40;;
3953;SDS011;1991;48.682;9.030;2022-10-04T22:06:51;6.33;;;4.80;;
3953;SDS011;1991;48.682;9.030;2022-10-04T22:09:16;7.30;;;4.33;;
3953;SDS011;1991;48.682;9.030;2022-10-04T22:11:42;6.83;;;4.07;;
3953;SDS011;1991;48.682;9.030;2022-10-04T22:14:07;6.70;;;4.20;;
3953;SDS011;1991;48.682;9.030;2022-10-04T22:16:33;5.40;;;4.30;;
3953;SDS011;1991;48.682;9.030;2022-10-04T22:18:59;8.30;;;4.03;;
3953;SDS011;1991;48.682;9.030;2022-10-04T22:21:24;4.90;;;4.40;;
3953;SDS011;1991;48.682;9.030;2022-10-04T22:23:50;7.43;;;4.60;;
3953;SDS011;1991;48.682;9.030;2022-10-04T22:26:16;4.10;;;3.70;;
3953;SDS011;1991;48.682;9.030;2022-10-04T22:28:45;4.27;;;3.87;;
3953;SDS011;1991;48.682;9.030;2022-10-04T22:31:13;4.67;;;4.00;;
3953;SDS011;1991;48.682;9.030;2022-10-04T22:33:40;5.90;;;4.10;;
3953;SDS011;1991;48.682;9.030;2022-10-04T22:38:36;7.13;;;4.33;;
3953;SDS011;1991;48.682;9.030;2022-10-04T22:41:07;6.20;;;4.40;;
3953;SDS011;1991;48.682;9.030;2022-10-04T22:43:36;5.43;;;4.33;;
3953;SDS011;1991;48.682;9.030;2022-10-04T22:46:02;6.47;;;4.37;;
3953;SDS011;1991;48.682;9.030;2022-10-04T22:48:28;8.00;;;4.47;;
3953;SDS011;1991;48.682;9.030;2022-10-04T22:50:53;8.10;;;4.50;;
3953;SDS011;1991;48.682;9.030;2022-10-04T22:53:20;5.57;;;4.00;;
3953;SDS011;1991;48.682;9.030;2022-10-04T22:55:47;4.27;;;3.87;;
3953;SDS011;1991;48.682;9.030;2022-10-04T22:58:13;7.83;;;4.30;;
3953;SDS011;1991;48.682;9.030;2022-10-04T23:00:40;6.50;;;4.30;;
3953;SDS011;1991;48.682;9.030;2022-10-04T23:05:57;7.17;;;4.90;;
3953;SDS011;1991;48.682;9.030;2022-10-04T23:08:23;8.40;;;4.70;;
3953;SDS011;1991;48.682;9.030;2022-10-04T23:10:55;6.20;;;4.90;;
3953;SDS011;1991;48.682;9.030;2022-10-04T23:13:23;6.40;;;4.73;;
3953;SDS011;1991;48.682;9.030;2022-10-04T23:15:49;5.03;;;4.23;;
3953;SDS011;1991;48.682;9.030;2022-10-04T23:18:16;4.80;;;4.20;;
3953;SDS011;1991;48.682;9.030;2022-10-04T23:20:43;8.27;;;4.10;;
3953;SDS011;1991;48.682;9.030;2022-10-04T23:23:21;5.83;;;4.23;;
3953;SDS011;1991;48.682;9.030;2022-10-04T23:25:47;7.67;;;4.67;;
3953;SDS011;1991;48.682;9.030;2022-10-04T23:28:14;5.53;;;3.90;;
3953;SDS011;1991;48.682;9.030;2022-10-04T23:30:42;6.80;;;3.90;;
3953;SDS011;1991;48.682;9.030;2022-10-04T23:33:16;7.27;;;4.30;;
3953;SDS011;1991;48.682;9.030;2022-10-04T23:35:45;4.93;;;4.40;;
3953;SDS011;1991;48.682;9.030;2022-10-04T23:38:12;6.90;;;5.47;;
3953;SDS011;1991;48.682;9.030;2022-10-04T23:40:40;6.47;;;4.97;;
3953;SDS011;1991;48.682;9.030;2022-10-04T23:43:07;6.70;;;4.90;;
3953;SDS011;1991;48.682;9.030;2022-10-04T23:45:39;6.70;;;5.00;;
3953;SDS011;1991;48.682;9.030;2022-10-04T23:48:07;5.80;;;4.90;;
3953;SDS011;1991;48.682;9.030;2022-10-04T23:50:35;6.67;;;4.93;;
3953;SDS011;1991;48.682;9.030;2022-10-04T23:53:03;6.47;;;5.50;;
3953;SDS011;1991;48.682;9.030;2022-10-04T23:55:37;11.57;;;5.97;;
3953;SDS011;1991;48.682;9.030;2022-10-04T23:58:18;7.13;;;5.90;;
